Glidden, Iowa
Current Conditions -  °F | °C
As of 7:35 AM on Sunday 23 Nov 2014 (Local Time) from KCIN Reporting Station
Overcast Overcast  
Wind Chill: 52°   Ceiling: 700
Heat Index: 52°   Visibility: 10mi
Dew Point: 50°   Wind: 12mph
Humidity: 94%   Direction: 190°S
Pressure: 29.48"   Gusts: NA
Location:  42.06°N, 94.73°W
Report Text: KCIN 231335Z AUTO 19010KT 10SM BKN007 OVC032 11/10 A2948 RMK AO2
Loading
Personal Weather Stations






























Interactive Weather Map New forecast layout! Learn more

10-Day Weather Forecast

Advertisements
Track Severe Weather on mobile